createdAt,value
2019-03-13T00:02:03.998Z,82.08
2019-03-13T00:04:33.615Z,82.12
2019-03-13T00:07:03.598Z,82.21
2019-03-13T00:09:33.246Z,82.16
2019-03-13T00:12:02.977Z,82.20
2019-03-13T00:14:32.626Z,82.28
2019-03-13T00:17:03.311Z,82.30
2019-03-13T00:19:33.145Z,82.20
2019-03-13T00:22:02.864Z,82.35
2019-03-13T00:24:32.545Z,82.42
2019-03-13T00:27:02.195Z,82.14
2019-03-13T00:29:31.861Z,82.09
2019-03-13T00:32:01.699Z,81.91
2019-03-13T00:34:31.701Z,81.69
2019-03-13T00:37:01.307Z,81.47
2019-03-13T00:39:35.714Z,81.13
2019-03-13T00:42:07.169Z,81.13
2019-03-13T00:44:36.822Z,81.14
2019-03-13T00:47:06.737Z,80.90
2019-03-13T00:49:36.390Z,80.93
2019-03-13T00:52:06.109Z,80.75
2019-03-13T00:54:35.770Z,80.59
2019-03-13T00:57:05.493Z,80.62
2019-03-13T00:59:35.211Z,80.25
2019-03-13T01:02:22.645Z,80.45
2019-03-13T01:05:14.423Z,80.53
2019-03-13T01:07:44.078Z,80.51
2019-03-13T01:10:14.075Z,80.41
2019-03-13T01:12:44.002Z,80.36
2019-03-13T01:15:13.897Z,80.12
2019-03-13T01:17:43.554Z,80.06
2019-03-13T01:20:13.564Z,80.20
2019-03-13T01:22:43.217Z,80.10
2019-03-13T01:25:13.019Z,79.62
2019-03-13T01:27:42.958Z,79.21
2019-03-13T01:30:12.989Z,79.23
2019-03-13T01:32:49.221Z,79.28
2019-03-13T01:35:36.086Z,79.35
2019-03-13T01:38:05.731Z,79.24
2019-03-13T01:40:35.381Z,79.02
2019-03-13T01:43:05.062Z,79.12
2019-03-13T01:45:34.774Z,78.97
2019-03-13T01:48:04.870Z,79.09
2019-03-13T01:50:34.593Z,79.11
2019-03-13T01:53:04.850Z,79.19
2019-03-13T01:55:34.501Z,79.11
2019-03-13T01:58:04.954Z,79.47
2019-03-13T02:00:35.053Z,79.43
2019-03-13T02:03:05.208Z,79.46
2019-03-13T02:05:34.870Z,79.39
2019-03-13T02:08:04.838Z,79.53
2019-03-13T02:10:34.496Z,79.19
2019-03-13T02:13:04.939Z,79.13
2019-03-13T02:15:34.683Z,79.10
2019-03-13T02:18:04.961Z,79.30
2019-03-13T02:20:34.658Z,79.10
2019-03-13T02:23:05.192Z,78.81
2019-03-13T02:25:35.031Z,78.88
2019-03-13T02:28:05.170Z,78.84
2019-03-13T02:30:34.829Z,78.78
2019-03-13T02:33:05.101Z,78.66
2019-03-13T02:35:34.785Z,78.79
2019-03-13T02:38:05.009Z,78.49
2019-03-13T02:40:34.662Z,78.36
2019-03-13T02:43:05.292Z,78.45
2019-03-13T02:45:34.954Z,78.06
2019-03-13T02:48:05.275Z,78.12
2019-03-13T02:50:34.947Z,78.05
2019-03-13T02:53:05.052Z,77.80
2019-03-13T02:55:34.749Z,77.29
2019-03-13T02:58:05.048Z,77.09
2019-03-13T03:00:50.157Z,76.73
2019-03-13T03:03:29.870Z,76.62
2019-03-13T03:06:00.489Z,76.54
2019-03-13T03:08:30.148Z,76.11
2019-03-13T03:10:59.834Z,76.61
2019-03-13T03:13:29.842Z,76.44
2019-03-13T03:15:59.498Z,76.34
2019-03-13T03:18:30.447Z,76.38
2019-03-13T03:21:00.306Z,76.34
2019-03-13T03:23:29.978Z,76.53
2019-03-13T03:26:05.988Z,76.75
2019-03-13T03:28:35.799Z,76.47
2019-03-13T03:31:05.524Z,76.36
2019-03-13T03:33:35.467Z,76.40
2019-03-13T03:36:05.098Z,76.53
2019-03-13T03:38:34.745Z,76.39
2019-03-13T03:41:05.284Z,76.63
2019-03-13T03:43:40.755Z,76.65
2019-03-13T03:46:06.526Z,76.29
2019-03-13T03:48:36.210Z,76.30
2019-03-13T03:51:05.934Z,76.09
2019-03-13T03:53:35.616Z,76.24
2019-03-13T03:56:05.545Z,75.86
2019-03-13T03:58:35.492Z,76.18
2019-03-13T04:01:05.266Z,75.75
2019-03-13T04:03:34.919Z,75.75
2019-03-13T04:06:05.147Z,75.58
2019-03-13T04:08:37.895Z,75.73
2019-03-13T04:11:06.448Z,75.93
2019-03-13T04:13:36.202Z,75.58
2019-03-13T04:16:05.855Z,75.56
2019-03-13T04:18:35.592Z,75.55
2019-03-13T04:21:05.394Z,75.79
2019-03-13T04:23:35.440Z,75.48
2019-03-13T04:26:05.300Z,75.64
2019-03-13T04:28:34.966Z,75.60
2019-03-13T04:31:05.310Z,75.48
2019-03-13T04:33:35.186Z,75.21
2019-03-13T04:36:05.149Z,75.47
2019-03-13T04:38:34.840Z,75.52
2019-03-13T04:41:05.413Z,75.34
2019-03-13T04:43:35.499Z,75.03
2019-03-13T04:46:05.261Z,75.12
2019-03-13T04:48:34.922Z,74.94
2019-03-13T04:51:05.172Z,74.66
2019-03-13T04:53:34.830Z,74.22
2019-03-13T04:56:04.974Z,74.45
2019-03-13T04:58:34.648Z,74.19
2019-03-13T05:01:05.118Z,74.23
2019-03-13T05:03:35.056Z,74.24
2019-03-13T05:06:20.963Z,74.05
2019-03-13T05:09:00.251Z,74.14
2019-03-13T05:11:31.480Z,74.06
2019-03-13T05:14:01.406Z,74.08
2019-03-13T05:16:31.070Z,74.09
2019-03-13T05:19:00.738Z,74.24
2019-03-13T05:21:30.667Z,74.17
2019-03-13T05:24:00.358Z,73.99
2019-03-13T05:26:30.022Z,74.05
2019-03-13T05:28:59.701Z,73.71
2019-03-13T05:31:29.356Z,73.84
2019-03-13T05:33:59.094Z,74.07
2019-03-13T05:36:28.750Z,73.66
2019-03-13T05:38:58.413Z,73.89
2019-03-13T05:41:28.174Z,74.44
2019-03-13T05:43:57.907Z,74.34
2019-03-13T05:46:27.559Z,74.54
2019-03-13T05:48:57.219Z,74.76
2019-03-13T05:51:26.957Z,75.04
2019-03-13T05:53:56.702Z,75.43
2019-03-13T05:56:26.354Z,75.21
2019-03-13T05:58:56.012Z,75.63
2019-03-13T06:01:25.674Z,75.82
2019-03-13T06:03:55.372Z,75.61
2019-03-13T06:06:25.022Z,75.59
2019-03-13T06:08:54.713Z,75.21
2019-03-13T06:11:24.358Z,75.54
2019-03-13T06:13:54.017Z,75.30
2019-03-13T06:16:23.859Z,75.80
2019-03-13T06:18:53.519Z,75.88
2019-03-13T06:21:23.187Z,76.12
2019-03-13T06:23:52.849Z,76.38
2019-03-13T06:26:22.749Z,76.08
2019-03-13T06:28:52.416Z,75.99
2019-03-13T06:31:22.071Z,76.06
2019-03-13T06:33:51.735Z,75.99
2019-03-13T06:36:21.388Z,75.97
2019-03-13T06:38:51.026Z,75.97
2019-03-13T06:41:20.732Z,75.85
2019-03-13T06:43:50.635Z,75.63
2019-03-13T06:46:20.291Z,75.57
2019-03-13T06:48:49.955Z,75.63
2019-03-13T06:51:19.603Z,75.18
2019-03-13T06:53:49.265Z,75.16
2019-03-13T06:56:18.993Z,74.96
2019-03-13T06:58:54.898Z,74.93
2019-03-13T07:01:46.348Z,74.92
2019-03-13T07:04:37.828Z,74.50
2019-03-13T07:07:29.275Z,74.67
2019-03-13T07:10:06.742Z,74.74
2019-03-13T07:12:51.167Z,75.06
2019-03-13T07:15:44.224Z,75.00
2019-03-13T07:18:20.054Z,75.16
2019-03-13T07:21:14.964Z,75.42
2019-03-13T07:23:59.646Z,75.24
2019-03-13T07:26:57.563Z,75.32
2019-03-13T07:29:45.690Z,75.99
2019-03-13T07:32:37.141Z,75.32
2019-03-13T07:35:17.715Z,75.10
2019-03-13T07:37:55.062Z,75.67
2019-03-13T07:40:36.654Z,76.21
2019-03-13T07:43:24.530Z,76.11
2019-03-13T07:46:09.902Z,76.46
2019-03-13T07:48:58.591Z,76.54
2019-03-13T07:51:37.014Z,76.80
2019-03-13T07:54:40.967Z,77.20
2019-03-13T07:57:18.298Z,77.00
2019-03-13T08:00:05.706Z,77.13
2019-03-13T08:02:46.567Z,76.70
2019-03-13T08:05:33.783Z,76.45
2019-03-13T08:08:20.194Z,76.17
2019-03-13T08:11:27.142Z,76.12
2019-03-13T08:14:04.432Z,75.81
2019-03-13T08:16:51.958Z,75.37
2019-03-13T08:19:40.634Z,74.86
2019-03-13T08:22:29.434Z,75.27
2019-03-13T08:25:10.355Z,75.20
2019-03-13T08:27:59.278Z,75.34
2019-03-13T08:30:50.779Z,75.01
2019-03-13T08:33:37.303Z,74.96
2019-03-13T08:36:24.538Z,74.88
2019-03-13T08:39:12.480Z,73.92
2019-03-13T08:42:00.193Z,74.56
2019-03-13T08:44:47.270Z,74.79
2019-03-13T08:47:28.241Z,75.99
2019-03-13T08:50:06.901Z,76.54
2019-03-13T08:52:45.479Z,77.25
2019-03-13T08:55:26.248Z,78.03
2019-03-13T08:58:12.672Z,78.91
2019-03-13T09:01:08.141Z,79.12
2019-03-13T09:04:01.531Z,80.11
2019-03-13T09:06:53.186Z,79.36
2019-03-13T09:09:36.468Z,79.50
2019-03-13T09:12:30.789Z,79.50
2019-03-13T09:15:12.405Z,80.19
2019-03-13T09:17:48.556Z,80.16
2019-03-13T09:20:52.358Z,79.86
2019-03-13T09:23:41.050Z,80.57
2019-03-13T09:26:20.653Z,80.69
2019-03-13T09:29:08.005Z,80.01
2019-03-13T09:31:55.601Z,80.33
2019-03-13T09:34:59.502Z,80.75
2019-03-13T09:37:48.437Z,81.30
2019-03-13T09:40:24.863Z,80.90
2019-03-13T09:43:05.911Z,81.32
2019-03-13T09:45:43.230Z,81.15
2019-03-13T09:48:22.133Z,81.69
2019-03-13T09:51:01.415Z,81.95
2019-03-13T09:53:42.692Z,81.42
2019-03-13T09:56:24.794Z,81.01
2019-03-13T09:59:04.026Z,81.40
2019-03-13T10:01:55.507Z,81.02
2019-03-13T10:04:34.084Z,80.48
2019-03-13T10:07:23.813Z,80.42
2019-03-13T10:10:06.166Z,80.67
2019-03-13T10:12:42.391Z,80.79
2019-03-13T10:15:34.347Z,80.98
2019-03-13T10:18:10.557Z,80.36
2019-03-13T10:20:59.394Z,80.20
2019-03-13T10:23:48.332Z,79.61
2019-03-13T10:26:42.983Z,79.08
2019-03-13T10:29:27.031Z,78.87
2019-03-13T10:32:27.968Z,79.01
2019-03-13T10:35:06.480Z,80.04
2019-03-13T10:37:47.453Z,80.30
2019-03-13T10:40:48.323Z,80.68
2019-03-13T10:43:25.389Z,79.76
2019-03-13T10:46:12.530Z,79.89
2019-03-13T10:48:54.297Z,79.29
2019-03-13T10:51:35.292Z,79.89
2019-03-13T10:54:36.511Z,79.69
2019-03-13T10:57:24.158Z,79.14
2019-03-13T11:00:03.190Z,79.49
2019-03-13T11:02:53.774Z,79.17
2019-03-13T11:05:43.111Z,79.21
2019-03-13T11:08:20.290Z,78.87
2019-03-13T11:11:07.682Z,79.47
2019-03-13T11:13:52.954Z,80.18
2019-03-13T11:16:53.604Z,80.43
2019-03-13T11:19:41.136Z,81.27
2019-03-13T11:22:32.298Z,81.24
2019-03-13T11:25:12.656Z,81.53
2019-03-13T11:28:04.197Z,81.97
2019-03-13T11:30:57.123Z,82.35
2019-03-13T11:33:34.164Z,82.28
2019-03-13T11:36:25.726Z,82.79
2019-03-13T11:39:06.023Z,83.50
2019-03-13T11:41:54.743Z,82.32
2019-03-13T11:44:42.372Z,82.68
2019-03-13T11:47:18.215Z,82.75
2019-03-13T11:50:19.171Z,82.69
2019-03-13T11:52:58.892Z,83.00
2019-03-13T11:55:40.023Z,82.99
2019-03-13T11:58:31.930Z,83.04
2019-03-13T12:01:07.433Z,82.75
2019-03-13T12:04:03.014Z,83.10
2019-03-13T12:06:54.796Z,83.38
2019-03-13T12:09:46.424Z,83.73
2019-03-13T12:12:31.261Z,83.58
2019-03-13T12:15:16.092Z,83.96
2019-03-13T12:18:05.073Z,82.65
2019-03-13T12:20:40.476Z,82.47
2019-03-13T12:23:20.878Z,82.93
2019-03-13T12:26:03.304Z,83.60
2019-03-13T12:28:39.682Z,83.89
2019-03-13T12:31:22.854Z,83.34
2019-03-13T12:34:17.621Z,84.15
2019-03-13T12:37:09.323Z,84.32
2019-03-13T12:39:50.188Z,84.45
2019-03-13T12:42:43.565Z,84.67
2019-03-13T12:45:25.685Z,84.26
2019-03-13T12:48:01.492Z,84.34
2019-03-13T12:50:36.394Z,84.29
2019-03-13T12:53:23.723Z,84.73
2019-03-13T12:56:11.013Z,85.20
2019-03-13T12:59:18.687Z,85.34
2019-03-13T13:02:07.368Z,85.16
2019-03-13T13:05:05.071Z,84.87
2019-03-13T13:07:54.026Z,84.76
2019-03-13T13:10:32.931Z,85.09
2019-03-13T13:13:21.903Z,85.15
2019-03-13T13:15:59.646Z,85.12
2019-03-13T13:18:45.194Z,85.23
2019-03-13T13:21:15.099Z,85.54
2019-03-13T13:23:44.760Z,85.61
2019-03-13T13:26:14.425Z,85.83
2019-03-13T13:28:44.170Z,86.08
2019-03-13T13:31:14.011Z,86.14
2019-03-13T13:33:43.654Z,85.80
2019-03-13T13:36:13.313Z,85.72
2019-03-13T13:38:43.122Z,86.07
2019-03-13T13:41:13.091Z,86.06
2019-03-13T13:43:43.722Z,85.17
2019-03-13T13:46:21.950Z,85.26
2019-03-13T13:48:51.602Z,85.08
2019-03-13T13:51:21.504Z,85.24
2019-03-13T13:53:51.234Z,85.48
2019-03-13T13:56:21.056Z,85.56
2019-03-13T13:58:50.701Z,85.65
2019-03-13T14:01:20.361Z,85.70
2019-03-13T14:03:50.221Z,85.77
2019-03-13T14:06:19.876Z,85.89
2019-03-13T14:08:49.526Z,86.10
2019-03-13T14:11:19.190Z,86.51
2019-03-13T14:13:48.862Z,86.34
2019-03-13T14:16:18.654Z,85.87
2019-03-13T14:18:48.410Z,85.35
2019-03-13T14:21:18.087Z,85.25
2019-03-13T14:23:47.751Z,85.08
2019-03-13T14:26:17.597Z,85.16
2019-03-13T14:28:47.322Z,85.14
2019-03-13T14:31:17.064Z,85.39
2019-03-13T14:33:46.731Z,85.37
2019-03-13T14:36:16.455Z,85.55
2019-03-13T14:38:46.119Z,85.56
2019-03-13T14:41:16.038Z,84.80
2019-03-13T14:43:45.908Z,85.13
2019-03-13T14:46:15.708Z,84.89
2019-03-13T14:48:45.363Z,85.31
2019-03-13T14:51:15.023Z,85.26
2019-03-13T14:53:44.682Z,85.05
2019-03-13T14:56:14.921Z,84.73
2019-03-13T14:58:44.587Z,83.73
2019-03-13T15:01:14.313Z,83.85
2019-03-13T15:03:44.223Z,83.34
2019-03-13T15:06:13.886Z,83.39
2019-03-13T15:08:43.775Z,83.52
2019-03-13T15:11:13.496Z,82.94
2019-03-13T15:13:43.228Z,82.94
2019-03-13T15:16:12.958Z,82.72
2019-03-13T15:18:42.615Z,83.08
2019-03-13T15:21:12.298Z,83.04
2019-03-13T15:23:41.953Z,83.15
2019-03-13T15:26:11.609Z,83.23
2019-03-13T15:28:41.355Z,83.21
2019-03-13T15:31:11.011Z,83.08
2019-03-13T15:33:40.658Z,82.37
2019-03-13T15:36:10.569Z,81.75
2019-03-13T15:38:40.221Z,81.85
2019-03-13T15:41:10.914Z,82.01
2019-03-13T15:43:40.628Z,81.23
2019-03-13T15:46:10.676Z,81.24
2019-03-13T15:48:40.511Z,81.68
2019-03-13T15:51:10.164Z,81.94
2019-03-13T15:53:39.838Z,81.65
2019-03-13T15:56:09.500Z,81.79
2019-03-13T15:58:39.423Z,81.31
2019-03-13T16:01:09.213Z,81.59
2019-03-13T16:03:38.878Z,81.65
2019-03-13T16:06:08.717Z,81.71
2019-03-13T16:08:38.375Z,81.59
2019-03-13T16:11:09.489Z,81.54
2019-03-13T16:13:39.393Z,81.37
2019-03-13T16:16:09.146Z,80.64
2019-03-13T16:18:38.816Z,80.39
2019-03-13T16:21:08.557Z,80.75
2019-03-13T16:23:38.371Z,79.95
2019-03-13T16:26:08.027Z,79.11
2019-03-13T16:28:37.708Z,79.32
2019-03-13T16:31:08.206Z,78.97
2019-03-13T16:33:37.927Z,78.00
2019-03-13T16:36:07.590Z,75.97
2019-03-13T16:38:37.373Z,74.93
2019-03-13T16:41:07.406Z,73.71
2019-03-13T16:43:37.074Z,73.61
2019-03-13T16:46:09.758Z,73.82
2019-03-13T16:48:39.420Z,72.79
2019-03-13T16:51:09.077Z,72.77
2019-03-13T16:53:38.735Z,72.27
2019-03-13T16:56:08.381Z,70.97
2019-03-13T16:58:38.384Z,71.43
2019-03-13T17:01:08.198Z,72.03
2019-03-13T17:03:38.602Z,71.16
2019-03-13T17:06:08.512Z,70.80
2019-03-13T17:08:38.183Z,70.78
2019-03-13T17:11:07.902Z,71.91
2019-03-13T17:13:37.907Z,73.97
2019-03-13T17:16:07.695Z,73.71
2019-03-13T17:18:37.382Z,74.48
2019-03-13T17:21:07.548Z,75.25
2019-03-13T17:23:37.837Z,74.97
2019-03-13T17:26:07.582Z,72.90
2019-03-13T17:28:40.335Z,73.01
2019-03-13T17:31:09.993Z,72.76
2019-03-13T17:33:39.919Z,71.73
2019-03-13T17:36:09.733Z,70.51
2019-03-13T17:38:39.433Z,70.33
2019-03-13T17:41:09.112Z,70.25
2019-03-13T17:43:39.777Z,69.29
2019-03-13T17:46:09.510Z,68.79
2019-03-13T17:48:39.387Z,69.37
2019-03-13T17:51:09.034Z,69.04
2019-03-13T17:53:38.900Z,68.88
2019-03-13T17:56:08.837Z,69.36
2019-03-13T17:58:38.616Z,69.58
2019-03-13T18:01:09.507Z,69.29
2019-03-13T18:03:39.175Z,69.83
2019-03-13T18:06:09.112Z,69.43
2019-03-13T18:08:39.008Z,68.97
2019-03-13T18:11:09.352Z,68.84
2019-03-13T18:13:39.030Z,67.92
2019-03-13T18:16:08.678Z,67.37
2019-03-13T18:18:38.588Z,67.38
2019-03-13T18:21:08.336Z,68.07
2019-03-13T18:23:38.000Z,68.08
2019-03-13T18:26:08.027Z,68.47
2019-03-13T18:28:37.700Z,68.76
2019-03-13T18:31:07.617Z,69.59
2019-03-13T18:33:37.328Z,69.34
2019-03-13T18:36:08.268Z,69.96
2019-03-13T18:38:37.954Z,69.23
2019-03-13T18:41:07.688Z,69.65
2019-03-13T18:43:37.355Z,70.66
2019-03-13T18:46:07.159Z,71.57
2019-03-13T18:48:36.823Z,72.89
2019-03-13T18:51:06.494Z,73.46
2019-03-13T18:53:36.142Z,74.13
2019-03-13T18:56:06.056Z,74.51
2019-03-13T18:58:39.045Z,74.14
2019-03-13T19:01:26.296Z,74.66
2019-03-13T19:10:20.349Z,75.16
2019-03-13T19:12:50.308Z,75.90
2019-03-13T19:15:40.069Z,75.50
2019-03-13T19:18:09.758Z,75.77
2019-03-13T19:23:26.813Z,75.90
2019-03-13T19:25:56.545Z,74.92
2019-03-13T19:28:26.698Z,75.32
2019-03-13T19:30:56.522Z,75.53
2019-03-13T19:33:26.504Z,75.29
2019-03-13T19:35:56.170Z,74.98
2019-03-13T19:38:25.852Z,75.64
2019-03-13T19:40:55.509Z,75.57
2019-03-13T19:43:25.444Z,75.32
2019-03-13T19:45:55.188Z,74.98
2019-03-13T19:48:24.869Z,75.17
2019-03-13T19:50:56.601Z,74.56
2019-03-13T19:53:26.204Z,74.48
2019-03-13T19:55:55.870Z,74.20
2019-03-13T19:58:26.793Z,74.37
2019-03-13T20:00:56.455Z,74.65
2019-03-13T20:03:26.198Z,75.47
2019-03-13T20:05:56.011Z,75.56
2019-03-13T20:08:25.670Z,75.84
2019-03-13T20:10:57.950Z,75.36
2019-03-13T20:13:28.178Z,74.70
2019-03-13T20:15:58.242Z,74.02
2019-03-13T20:18:27.996Z,74.14
2019-03-13T20:20:57.685Z,73.42
2019-03-13T20:23:27.347Z,74.07
2019-03-13T20:25:57.256Z,74.31
2019-03-13T20:28:27.300Z,73.65
2019-03-13T20:30:57.041Z,72.72
2019-03-13T20:33:26.954Z,72.98
2019-03-13T20:35:56.697Z,72.98
2019-03-13T20:38:26.436Z,72.54
2019-03-13T20:40:56.245Z,72.37
2019-03-13T20:43:25.925Z,72.35
2019-03-13T20:45:56.132Z,71.89
2019-03-13T20:48:25.805Z,72.04
2019-03-13T20:50:55.469Z,71.81
2019-03-13T20:53:26.073Z,71.96
2019-03-13T20:55:58.645Z,71.19
2019-03-13T20:58:27.363Z,71.38
2019-03-13T21:00:57.027Z,71.67
2019-03-13T21:03:26.750Z,71.13
2019-03-13T21:05:56.419Z,71.45
2019-03-13T21:08:26.082Z,71.81
2019-03-13T21:10:55.917Z,71.03
2019-03-13T21:13:25.864Z,71.07
2019-03-13T21:15:55.838Z,71.07
2019-03-13T21:18:25.494Z,70.70
2019-03-13T21:20:55.405Z,70.96
2019-03-13T21:23:25.064Z,70.79
2019-03-13T21:25:54.749Z,71.01
2019-03-13T21:28:24.424Z,70.29
2019-03-13T21:30:54.159Z,70.20
2019-03-13T21:33:23.892Z,70.74
2019-03-13T21:35:53.555Z,70.88
2019-03-13T21:38:23.501Z,70.29
2019-03-13T21:40:54.444Z,70.56
2019-03-13T21:43:24.402Z,70.44
2019-03-13T21:45:54.072Z,70.49
2019-03-13T21:48:23.797Z,70.86
2019-03-13T21:50:53.475Z,70.23
2019-03-13T21:53:23.230Z,70.33
2019-03-13T21:55:52.895Z,70.20
2019-03-13T21:58:22.560Z,70.12
2019-03-13T22:00:52.223Z,70.37
2019-03-13T22:03:28.776Z,70.43
2019-03-13T22:05:53.625Z,70.25
2019-03-13T22:08:23.692Z,70.47
2019-03-13T22:10:53.368Z,70.06
2019-03-13T22:13:23.196Z,70.50
2019-03-13T22:15:52.948Z,70.36
2019-03-13T22:18:22.809Z,70.84
2019-03-13T22:20:52.487Z,70.74
2019-03-13T22:23:22.167Z,70.80
2019-03-13T22:25:51.835Z,70.73
2019-03-13T22:28:21.511Z,70.90
2019-03-13T22:30:51.194Z,71.19
2019-03-13T22:33:20.877Z,70.91
2019-03-13T22:35:50.521Z,71.23
2019-03-13T22:38:20.288Z,71.18
2019-03-13T22:40:49.962Z,71.25
2019-03-13T22:43:19.691Z,71.46
2019-03-13T22:45:49.423Z,72.13
2019-03-13T22:48:19.099Z,72.31
2019-03-13T22:50:49.899Z,72.32
2019-03-13T22:53:20.527Z,72.66
2019-03-13T22:55:50.194Z,72.97
2019-03-13T22:58:19.932Z,73.31
2019-03-13T23:01:01.917Z,73.73
2019-03-13T23:03:33.321Z,74.28
2019-03-13T23:06:03.305Z,74.71
2019-03-13T23:08:32.985Z,75.43
2019-03-13T23:11:02.789Z,75.96
2019-03-13T23:13:32.447Z,76.29
2019-03-13T23:16:02.196Z,76.70
2019-03-13T23:18:32.111Z,77.19
2019-03-13T23:21:01.799Z,77.70
2019-03-13T23:23:32.200Z,77.81
2019-03-13T23:26:01.849Z,78.17
2019-03-13T23:28:31.581Z,78.45
2019-03-13T23:31:01.316Z,78.58
2019-03-13T23:33:30.971Z,78.84
2019-03-13T23:36:00.625Z,78.92
2019-03-13T23:38:30.303Z,79.08
2019-03-13T23:41:00.143Z,79.24
2019-03-13T23:43:29.824Z,79.42
2019-03-13T23:46:00.140Z,79.33
2019-03-13T23:48:29.819Z,79.49
2019-03-13T23:50:59.476Z,79.53
2019-03-13T23:53:29.151Z,79.75
2019-03-13T23:55:58.824Z,80.08
2019-03-13T23:58:28.740Z,80.16
